Time;durP1;ratioP1;P1;durP2;ratioP2;P2;SDS_P1;SDS_P2;PMS_P1;PMS_P2;Temp;Humidity;BMP_temperature;BMP_pressure;BME280_temperature;BME280_humidity;BME280_pressure;Samples;Min_cycle;Max_cycle;Signal;HPM_P1;HPM_P2
2021/12/20 00:01:26;;;;;;;12.15;1.70;;;;;;;5.66;100.00;102739.00;5053926;28;20053;-53
2021/12/20 00:03:54;;;;;;;11.70;1.63;;;;;;;5.70;100.00;102739.81;5054898;28;20504;-53
2021/12/20 00:06:22;;;;;;;13.85;2.40;;;;;;;5.73;100.00;102734.56;5054950;28;20049;-54
2021/12/20 00:08:52;;;;;;;11.18;1.83;;;;;;;5.73;100.00;102739.78;5054851;28;20053;-51
2021/12/20 00:11:20;;;;;;;10.93;1.52;;;;;;;5.73;100.00;102735.41;5053579;28;20115;-54
2021/12/20 00:13:48;;;;;;;11.93;2.70;;;;;;;5.71;100.00;102723.25;5051397;28;20084;-52
2021/12/20 00:16:16;;;;;;;6.43;1.33;;;;;;;5.71;100.00;102725.88;5053968;28;20045;-55
2021/12/20 00:18:44;;;;;;;8.55;1.48;;;;;;;5.75;100.00;102725.81;5054484;28;20083;-54
2021/12/20 00:21:13;;;;;;;8.95;1.80;;;;;;;5.74;100.00;102725.84;5054318;28;20048;-54
2021/12/20 00:23:41;;;;;;;10.40;1.42;;;;;;;5.72;100.00;102719.78;5051598;28;20045;-53
2021/12/20 00:26:11;;;;;;;11.23;2.00;;;;;;;5.65;100.00;102721.59;5052704;28;20060;-51
2021/12/20 00:28:40;;;;;;;4.20;1.45;;;;;;;5.65;100.00;102724.22;5054458;28;20393;-54
2021/12/20 00:31:08;;;;;;;9.07;1.63;;;;;;;5.68;100.00;102725.91;5051834;28;20055;-55
2021/12/20 00:33:36;;;;;;;13.18;1.77;;;;;;;5.66;100.00;102725.94;5050139;28;20052;-53
2021/12/20 00:36:07;;;;;;;13.30;2.33;;;;;;;5.70;100.00;102725.03;5054730;28;20514;-53
2021/12/20 00:41:24;;;;;;;10.55;1.98;;;;;;;5.67;100.00;102724.19;5054038;28;20087;-52
2021/12/20 00:43:52;;;;;;;9.05;1.40;;;;;;;5.62;100.00;102723.38;5053745;28;20051;-53
2021/12/20 00:46:20;;;;;;;8.63;1.63;;;;;;;5.59;100.00;102719.94;5051703;28;20071;-55
2021/12/20 00:48:48;;;;;;;15.10;1.90;;;;;;;5.58;100.00;102726.03;5051135;28;20045;-55
2021/12/20 00:51:16;;;;;;;13.32;1.90;;;;;;;5.57;100.00;102726.94;5054137;28;20098;-53
2021/12/20 00:53:44;;;;;;;9.20;1.38;;;;;;;5.58;100.00;102719.97;5054301;28;20049;-54
2021/12/20 00:56:12;;;;;;;13.38;1.92;;;;;;;5.53;100.00;102721.78;5053970;28;20507;-54
2021/12/20 00:58:42;;;;;;;6.88;1.30;;;;;;;5.52;100.00;102726.16;5052795;28;20098;-53
2021/12/20 01:01:10;;;;;;;18.50;2.40;;;;;;;5.52;100.00;102725.28;5051413;28;20106;-54
2021/12/20 01:03:38;;;;;;;10.65;2.15;;;;;;;5.52;100.00;102727.88;5051626;28;20056;-54
2021/12/20 01:06:07;;;;;;;8.30;1.45;;;;;;;5.48;100.00;102729.69;5054057;28;20052;-55
2021/12/20 01:08:38;;;;;;;11.88;1.77;;;;;;;5.44;100.00;102725.41;5053679;28;20442;-53
2021/12/20 01:11:06;;;;;;;10.30;1.98;;;;;;;5.46;100.00;102717.53;5053711;28;20053;-54
2021/12/20 01:13:39;;;;;;;11.80;1.88;;;;;;;5.52;100.00;102723.53;5053487;28;20443;-55
2021/12/20 01:16:12;;;;;;;12.95;2.10;;;;;;;5.52;100.00;102714.81;5053926;28;20484;-54
2021/12/20 01:18:41;;;;;;;14.73;1.85;;;;;;;5.51;100.00;102718.34;5053302;28;20056;-54
2021/12/20 01:21:09;;;;;;;10.63;1.73;;;;;;;5.48;100.00;102719.25;5053831;28;20048;-53
2021/12/20 01:23:38;;;;;;;15.85;2.53;;;;;;;5.48;100.00;102714.03;5053573;28;20056;-54
2021/12/20 01:26:06;;;;;;;9.27;1.50;;;;;;;5.48;100.00;102714.03;5053598;28;20052;-54
2021/12/20 01:28:34;;;;;;;12.63;1.80;;;;;;;5.49;100.00;102714.88;5053364;28;20041;-54
2021/12/20 01:31:03;;;;;;;14.15;1.60;;;;;;;5.48;100.00;102714.03;5053251;28;20483;-55
2021/12/20 01:33:32;;;;;;;16.83;2.17;;;;;;;5.44;100.00;102714.97;5048939;28;20051;-53
2021/12/20 01:36:01;;;;;;;15.70;1.90;;;;;;;5.39;100.00;102708.94;5050409;28;20041;-55
2021/12/20 01:38:29;;;;;;;12.25;1.75;;;;;;;5.34;100.00;102714.19;5051939;28;20064;-55
2021/12/20 01:40:57;;;;;;;7.57;1.60;;;;;;;5.41;100.00;102720.19;5051076;28;20106;-52
2021/12/20 01:43:25;;;;;;;20.00;2.85;;;;;;;5.37;100.00;102726.34;5051951;28;20075;-53
2021/12/20 01:45:53;;;;;;;11.38;1.55;;;;;;;5.42;100.00;102729.75;5052851;28;20106;-51
2021/12/20 01:48:23;;;;;;;17.98;2.00;;;;;;;5.38;100.00;102721.09;5051817;28;20726;-53
2021/12/20 01:53:43;;;;;;;19.03;2.43;;;;;;;5.35;100.00;102721.16;5051709;28;20053;-50
2021/12/20 01:56:11;;;;;;;14.30;2.28;;;;;;;5.34;100.00;102718.56;5046903;28;20538;-55
2021/12/20 01:58:40;;;;;;;16.42;2.58;;;;;;;5.34;100.00;102718.56;5045088;28;20500;-53
2021/12/20 02:01:21;;;;;;;12.40;1.85;;;;;;;5.29;100.00;102716.03;5048727;28;20090;-55
2021/12/20 02:03:56;;;;;;;15.43;2.58;;;;;;;5.31;100.00;102721.22;5047538;28;20045;-53
2021/12/20 02:06:32;;;;;;;13.32;2.05;;;;;;;5.23;100.00;102714.31;5046012;28;20098;-53
2021/12/20 02:09:03;;;;;;;11.07;1.75;;;;;;;5.27;100.00;102711.69;5047164;28;20049;-52
2021/12/20 02:11:32;;;;;;;13.52;2.38;;;;;;;5.28;100.00;102718.66;5052964;28;20139;-53
2021/12/20 02:14:00;;;;;;;12.88;2.20;;;;;;;5.26;100.00;102718.66;5047777;28;20057;-54
2021/12/20 02:16:30;;;;;;;14.15;2.20;;;;;;;5.28;100.00;102710.81;5047794;28;20061;-50
2021/12/20 02:19:01;;;;;;;13.27;2.65;;;;;;;5.27;100.00;102707.34;5047474;28;20500;-53
2021/12/20 02:21:32;;;;;;;13.00;2.17;;;;;;;5.29;100.00;102709.91;5041174;28;20535;-54
2021/12/20 02:24:01;;;;;;;15.02;2.63;;;;;;;5.30;100.00;102711.66;5046800;28;20037;-54
2021/12/20 02:26:29;;;;;;;15.52;1.80;;;;;;;5.30;100.00;102709.91;5042873;28;20071;-55
2021/12/20 02:29:03;;;;;;;12.40;2.38;;;;;;;5.31;100.00;102708.16;5047187;28;20045;-52
2021/12/20 02:37:26;;;;;;;15.65;1.90;;;;;;;5.29;100.00;102696.88;4968171;28;20053;-53
2021/12/20 02:39:56;;;;;;;18.67;2.22;;;;;;;5.25;100.00;102703.91;4968154;28;20054;-52
2021/12/20 02:42:30;;;;;;;16.02;2.15;;;;;;;5.23;100.00;102700.44;5007217;28;20135;-52
2021/12/20 02:45:14;;;;;;;16.65;2.30;;;;;;;5.20;100.00;102695.25;5047459;28;20120;-53
2021/12/20 02:47:44;;;;;;;12.40;2.03;;;;;;;5.17;100.00;102693.56;5041428;28;20049;-53
2021/12/20 02:50:14;;;;;;;18.75;2.50;;;;;;;5.19;100.00;102693.53;5043821;28;20041;-54
2021/12/20 02:52:44;;;;;;;11.02;1.70;;;;;;;5.16;100.00;102689.22;5042405;28;20231;-52
2021/12/20 02:55:13;;;;;;;19.30;3.75;;;;;;;5.17;100.00;102692.72;5048498;28;20065;-52
2021/12/20 02:57:41;;;;;;;16.35;2.20;;;;;;;5.15;100.00;102692.69;5043112;28;20534;-53
2021/12/20 03:00:11;;;;;;;20.50;2.13;;;;;;;5.16;100.00;102689.22;5041136;28;20665;-50
2021/12/20 03:02:40;;;;;;;18.60;2.53;;;;;;;5.15;100.00;102694.47;5048598;28;20547;-49
2021/12/20 03:05:11;;;;;;;15.93;2.00;;;;;;;5.13;100.00;102691.88;5050348;28;20120;-52
2021/12/20 03:07:45;;;;;;;16.55;1.80;;;;;;;5.13;100.00;102693.63;5046749;28;20052;-53
2021/12/20 03:10:16;;;;;;;15.05;2.33;;;;;;;5.16;100.00;102699.66;5044021;28;20519;-52
2021/12/20 03:12:45;;;;;;;14.32;2.05;;;;;;;5.15;100.00;102699.66;5047530;28;20140;-54
2021/12/20 03:15:18;;;;;;;17.38;3.25;;;;;;;5.18;100.00;102700.50;5049632;28;20068;-51
2021/12/20 03:17:47;;;;;;;15.57;2.60;;;;;;;5.16;100.00;102697.03;5048700;28;20064;-51
2021/12/20 03:20:15;;;;;;;19.50;2.83;;;;;;;5.14;100.00;102704.03;5038865;28;20041;-55
2021/12/20 03:22:43;;;;;;;13.85;1.98;;;;;;;5.10;100.00;102696.25;5051756;28;20052;-55
2021/12/20 03:25:12;;;;;;;11.90;2.30;;;;;;;5.14;100.00;102695.31;5050379;28;20061;-54
2021/12/20 03:27:41;;;;;;;16.75;2.58;;;;;;;5.11;100.00;102697.97;5051220;28;20512;-53
2021/12/20 03:30:12;;;;;;;11.00;1.63;;;;;;;5.10;100.00;102697.13;5048864;28;20415;-52
2021/12/20 03:32:40;;;;;;;23.60;3.05;;;;;;;5.07;100.00;102703.25;5038985;28;20056;-53
2021/12/20 03:35:10;;;;;;;14.63;2.05;;;;;;;4.97;100.00;102695.56;5049289;28;20045;-53
2021/12/20 03:37:42;;;;;;;21.48;2.63;;;;;;;4.99;100.00;102704.19;5048155;28;20052;-53
2021/12/20 03:40:12;;;;;;;15.68;2.63;;;;;;;5.02;100.00;102709.41;5047000;28;20041;-53
2021/12/20 03:42:44;;;;;;;12.32;2.42;;;;;;;5.07;100.00;102713.69;5048761;28;20044;-53
2021/12/20 03:45:15;;;;;;;16.27;2.15;;;;;;;5.07;100.00;102702.38;5048956;28;20053;-53
2021/12/20 03:47:43;;;;;;;13.82;2.63;;;;;;;5.05;100.00;102704.16;5049416;28;20110;-53
2021/12/20 03:50:13;;;;;;;16.15;2.60;;;;;;;5.04;100.00;102708.47;5055416;28;20944;-53
2021/12/20 03:52:42;;;;;;;13.00;1.88;;;;;;;4.90;100.00;102706.03;5041707;28;20357;-52
2021/12/20 03:55:12;;;;;;;20.42;2.50;;;;;;;5.00;100.00;102698.13;5043529;28;20041;-54
2021/12/20 03:57:40;;;;;;;17.67;2.83;;;;;;;5.00;100.00;102705.94;5044995;28;20110;-52
2021/12/20 04:00:12;;;;;;;15.93;2.38;;;;;;;4.96;100.00;102705.09;5036812;28;20512;-53
2021/12/20 04:02:43;;;;;;;14.15;2.28;;;;;;;4.98;100.00;102710.31;5052746;28;20442;-53
2021/12/20 04:05:13;;;;;;;17.23;2.05;;;;;;;4.98;100.00;102711.19;5049247;28;20125;-55
2021/12/20 04:07:41;;;;;;;20.65;2.22;;;;;;;4.97;100.00;102708.59;5052837;28;20515;-53
2021/12/20 04:10:10;;;;;;;18.10;2.25;;;;;;;4.99;100.00;102701.59;5052594;28;20036;-52
2021/12/20 04:12:38;;;;;;;20.30;2.80;;;;;;;4.97;100.00;102704.22;5043900;28;20060;-52
2021/12/20 04:15:09;;;;;;;18.95;2.40;;;;;;;4.93;100.00;102696.47;5054573;28;20139;-53
2021/12/20 04:17:37;;;;;;;15.05;2.90;;;;;;;4.94;100.00;102712.09;5054521;28;20053;-54
2021/12/20 04:20:07;;;;;;;11.48;2.28;;;;;;;5.04;100.00;102713.69;5054374;28;20092;-55
2021/12/20 04:22:35;;;;;;;15.55;2.60;;;;;;;4.96;100.00;102702.50;5054595;28;20067;-54
2021/12/20 04:25:04;;;;;;;14.15;2.15;;;;;;;4.93;100.00;102712.97;5054168;28;20049;-55
2021/12/20 04:27:33;;;;;;;17.75;2.78;;;;;;;4.94;100.00;102712.09;5051553;28;20048;-53
2021/12/20 04:30:08;;;;;;;12.02;2.20;;;;;;;4.97;100.00;102712.03;5053033;28;20103;-52
2021/12/20 04:32:39;;;;;;;17.08;2.55;;;;;;;4.96;100.00;102704.25;5049274;28;20051;-52
2021/12/20 04:35:08;;;;;;;17.92;1.90;;;;;;;4.93;100.00;102699.94;5051466;28;20053;-55
2021/12/20 04:37:37;;;;;;;12.57;1.55;;;;;;;4.96;100.00;102706.84;5053938;28;20045;-55
2021/12/20 04:40:09;;;;;;;16.63;2.25;;;;;;;4.91;100.00;102717.34;5052013;28;20395;-54
2021/12/20 04:42:37;;;;;;;14.38;2.25;;;;;;;4.86;100.00;102709.56;5052980;28;20049;-54
2021/12/20 04:45:06;;;;;;;10.20;1.83;;;;;;;4.87;100.00;102703.47;5054144;28;20051;-55
2021/12/20 04:47:35;;;;;;;23.50;2.60;;;;;;;4.94;100.00;102712.09;5050646;28;20882;-54
2021/12/20 04:50:06;;;;;;;15.75;2.45;;;;;;;4.99;100.00;102710.31;5050540;28;20074;-53
2021/12/20 04:52:35;;;;;;;16.42;1.83;;;;;;;4.91;99.56;102702.56;5053779;28;20095;-53
2021/12/20 04:55:05;;;;;;;19.08;2.00;;;;;;;4.93;99.51;102706.91;5054033;28;20044;-53
2021/12/20 04:57:33;;;;;;;12.38;2.25;;;;;;;4.93;99.75;102701.69;5054145;28;20396;-52
2021/12/20 05:00:01;;;;;;;12.85;2.30;;;;;;;4.97;97.82;102709.44;5054257;28;20075;-52
2021/12/20 05:02:29;;;;;;;17.95;2.00;;;;;;;4.90;97.85;102700.81;5053619;28;20041;-52
2021/12/20 05:04:57;;;;;;;12.13;2.20;;;;;;;4.87;97.30;102710.44;5054014;28;20116;-52
2021/12/20 05:07:27;;;;;;;13.23;2.60;;;;;;;4.82;95.35;102710.47;5053925;28;20472;-53
2021/12/20 05:09:59;;;;;;;13.38;2.55;;;;;;;4.84;95.90;102713.06;5053942;28;20048;-51
2021/12/20 05:12:28;;;;;;;11.05;1.85;;;;;;;4.83;95.39;102709.59;5050580;28;20049;-52
2021/12/20 05:14:56;;;;;;;16.90;2.38;;;;;;;4.82;94.31;102715.69;5051150;28;20053;-53
2021/12/20 05:17:24;;;;;;;16.48;2.13;;;;;;;4.85;95.25;102713.06;5052132;28;20060;-52
2021/12/20 05:19:52;;;;;;;12.98;1.63;;;;;;;4.86;95.79;102729.56;5049679;28;20053;-54
2021/12/20 05:22:20;;;;;;;14.27;2.30;;;;;;;4.85;95.21;102727.84;5052441;28;20419;-51
2021/12/20 05:24:50;;;;;;;15.13;2.17;;;;;;;4.84;95.78;102721.78;5045668;28;20052;-53
2021/12/20 05:27:18;;;;;;;10.60;1.90;;;;;;;4.87;96.78;102720.88;5040156;28;20044;-52
2021/12/20 05:29:48;;;;;;;14.07;2.72;;;;;;;4.87;96.36;102719.13;5045754;28;20049;-51
2021/12/20 05:32:16;;;;;;;20.02;2.30;;;;;;;4.86;95.41;102724.34;5047721;28;20037;-50
2021/12/20 05:34:44;;;;;;;14.48;2.20;;;;;;;4.83;95.54;102738.28;5046290;28;20154;-54
2021/12/20 05:37:13;;;;;;;19.67;2.60;;;;;;;4.86;95.35;102734.78;5042730;28;20492;-54
2021/12/20 05:39:41;;;;;;;12.30;2.35;;;;;;;4.85;96.57;102727.84;5052741;28;20057;-52
2021/12/20 05:42:11;;;;;;;12.85;1.73;;;;;;;4.85;95.86;102726.13;5065896;28;20496;-50
2021/12/20 05:44:40;;;;;;;15.70;2.25;;;;;;;4.87;96.93;102726.09;5055660;28;20044;-49
2021/12/20 05:47:08;;;;;;;18.33;2.30;;;;;;;4.85;99.14;102723.50;5036353;28;20049;-53
2021/12/20 05:49:36;;;;;;;14.38;2.40;;;;;;;4.82;99.71;102728.72;5038446;28;20403;-50
2021/12/20 05:52:04;;;;;;;16.48;2.15;;;;;;;4.85;98.50;102728.72;5038499;28;20037;-52
2021/12/20 05:54:33;;;;;;;16.17;2.60;;;;;;;4.80;99.24;102720.06;5035562;28;20037;-52
2021/12/20 05:57:01;;;;;;;9.32;1.50;;;;;;;4.77;99.43;102730.50;5049222;28;20206;-52
2021/12/20 05:59:30;;;;;;;11.63;1.42;;;;;;;4.70;99.81;102724.53;5048093;28;20045;-51
2021/12/20 06:01:58;;;;;;;15.13;2.45;;;;;;;4.73;99.46;102723.59;5037604;28;20511;-52
2021/12/20 06:04:26;;;;;;;16.67;2.65;;;;;;;4.70;99.69;102719.31;5049166;28;20045;-55
2021/12/20 06:06:55;;;;;;;11.15;1.75;;;;;;;4.70;100.00;102727.13;5045000;28;20485;-53
2021/12/20 06:09:23;;;;;;;14.80;1.92;;;;;;;4.69;99.36;102722.81;5048374;28;20049;-51
2021/12/20 06:11:51;;;;;;;13.57;2.05;;;;;;;4.70;100.00;102719.31;5033780;28;20068;-52
2021/12/20 06:14:19;;;;;;;8.88;1.67;;;;;;;4.69;100.00;102719.31;5046620;28;20045;-51
2021/12/20 06:16:49;;;;;;;12.07;1.92;;;;;;;4.68;100.00;102721.06;5034702;28;20047;-51
2021/12/20 06:19:18;;;;;;;11.45;1.70;;;;;;;4.64;100.00;102719.38;5046289;28;20037;-53
2021/12/20 06:21:49;;;;;;;13.30;1.85;;;;;;;4.67;100.00;102731.50;5041234;28;20044;-52
2021/12/20 06:24:17;;;;;;;13.18;2.00;;;;;;;4.59;98.78;102731.56;5046663;28;20041;-53
2021/12/20 06:26:46;;;;;;;13.60;1.90;;;;;;;4.64;97.39;102723.72;5042621;28;20564;-52
2021/12/20 06:29:15;;;;;;;15.18;2.30;;;;;;;4.64;98.24;102724.59;5036370;28;20060;-53
2021/12/20 06:31:43;;;;;;;13.25;2.17;;;;;;;4.65;97.99;102731.53;5042094;28;20037;-50
2021/12/20 06:34:13;;;;;;;12.43;2.30;;;;;;;4.64;98.85;102744.59;5030548;28;20045;-49
2021/12/20 06:36:41;;;;;;;13.48;1.85;;;;;;;4.59;98.72;102739.41;5031146;28;20049;-53
2021/12/20 06:39:09;;;;;;;11.23;1.70;;;;;;;4.59;97.45;102747.22;5037964;28;20060;-54
2021/12/20 06:41:37;;;;;;;11.82;2.10;;;;;;;4.60;97.83;102748.94;5046111;28;20473;-53
2021/12/20 06:44:06;;;;;;;14.88;2.72;;;;;;;4.59;98.08;102746.34;5048264;28;20041;-53
2021/12/20 06:46:40;;;;;;;13.77;1.75;;;;;;;4.57;98.46;102751.59;5042766;28;20041;-51
2021/12/20 06:49:10;;;;;;;13.25;1.92;;;;;;;4.57;98.22;102755.06;5033021;28;20530;-52
2021/12/20 06:51:42;;;;;;;14.00;2.33;;;;;;;4.59;98.53;102757.63;5034661;28;20048;-54
2021/12/20 06:54:11;;;;;;;8.52;1.55;;;;;;;4.55;97.79;102755.94;5037238;28;20049;-51
2021/12/20 06:56:43;;;;;;;19.35;2.70;;;;;;;4.54;97.90;102755.09;5048291;28;20424;-54
2021/12/20 06:59:11;;;;;;;12.85;1.88;;;;;;;4.55;97.26;102753.34;5027822;28;20077;-51
2021/12/20 07:01:41;;;;;;;16.52;2.58;;;;;;;4.54;97.41;102755.09;5033430;28;20041;-52
2021/12/20 07:04:12;;;;;;;15.65;2.17;;;;;;;4.54;97.78;102764.63;5036696;28;20053;-51
2021/12/20 07:06:42;;;;;;;11.75;1.55;;;;;;;4.52;97.83;102759.44;5038697;28;20064;-54
2021/12/20 07:09:11;;;;;;;11.43;1.80;;;;;;;4.52;97.63;102758.59;5044448;28;20463;-53
2021/12/20 07:11:40;;;;;;;9.30;1.50;;;;;;;4.54;97.79;102764.63;5030700;28;20537;-50
2021/12/20 07:14:10;;;;;;;9.45;1.83;;;;;;;4.55;97.07;102764.66;5036039;28;20057;-52
2021/12/20 07:16:40;;;;;;;11.70;2.20;;;;;;;4.56;97.43;102768.09;5039934;28;20396;-54
2021/12/20 07:19:08;;;;;;;11.93;2.15;;;;;;;4.55;96.87;102769.84;5041450;28;20049;-53
2021/12/20 07:21:36;;;;;;;10.13;1.67;;;;;;;4.54;97.43;102764.63;5037349;28;20061;-52
2021/12/20 07:24:06;;;;;;;11.32;1.73;;;;;;;4.54;99.17;102767.22;5035352;28;20050;-52
2021/12/20 07:26:34;;;;;;;15.18;2.10;;;;;;;4.53;100.00;102766.38;5029538;28;20053;-51
2021/12/20 07:29:04;;;;;;;15.18;2.67;;;;;;;4.54;100.00;102770.72;5027374;28;20099;-54
2021/12/20 07:31:32;;;;;;;10.63;1.83;;;;;;;4.54;100.00;102760.31;5035373;28;20080;-51
2021/12/20 07:34:00;;;;;;;11.50;1.90;;;;;;;4.56;100.00;102768.94;5042974;28;20036;-52
2021/12/20 07:36:29;;;;;;;10.63;1.70;;;;;;;4.60;100.00;102761.13;5046704;28;20068;-53
2021/12/20 07:38:59;;;;;;;10.63;1.92;;;;;;;4.56;100.00;102766.34;5043954;28;20048;-53
2021/12/20 07:41:51;;;;;;;14.75;2.28;;;;;;;4.51;100.00;102770.75;5052486;28;20060;-53
2021/12/20 07:44:20;;;;;;;17.17;3.72;;;;;;;4.52;100.00;102772.47;5046244;28;20049;-54
2021/12/20 07:46:48;;;;;;;10.40;2.15;;;;;;;4.51;100.00;102767.28;5030934;28;20042;-53
2021/12/20 07:49:16;;;;;;;16.38;2.85;;;;;;;4.57;99.31;102775.91;5036371;28;20041;-51
2021/12/20 07:51:44;;;;;;;14.32;3.40;;;;;;;4.56;98.98;102781.13;5038111;28;20055;-52
2021/12/20 07:54:12;;;;;;;10.75;2.80;;;;;;;4.53;98.35;102776.81;5035386;28;20485;-53
2021/12/20 07:56:40;;;;;;;16.05;1.98;;;;;;;4.51;98.17;102775.97;5049784;28;20048;-53
2021/12/20 07:59:10;;;;;;;4.00;1.60;;;;;;;4.52;97.90;102774.22;5041585;28;20373;-52
2021/12/20 08:01:38;;;;;;;16.30;2.30;;;;;;;4.51;97.90;102773.38;5041090;28;20053;-53
2021/12/20 08:04:07;;;;;;;13.02;2.58;;;;;;;4.48;97.04;102772.50;5033031;28;20045;-52
2021/12/20 08:06:36;;;;;;;11.98;2.22;;;;;;;4.52;97.17;102777.69;5034648;28;20372;-51
2021/12/20 08:09:05;;;;;;;15.35;2.65;;;;;;;4.54;96.65;102785.47;5039110;28;20046;-52
2021/12/20 08:11:35;;;;;;;11.20;1.88;;;;;;;4.56;96.47;102781.13;5035891;28;20045;-52
2021/12/20 08:14:04;;;;;;;8.55;1.85;;;;;;;4.60;96.32;102784.59;5048579;28;20137;-52
2021/12/20 08:16:34;;;;;;;10.48;1.75;;;;;;;4.54;96.56;102781.16;5052542;28;20626;-54
2021/12/20 08:19:02;;;;;;;9.63;2.10;;;;;;;4.56;97.23;102783.72;5040291;28;20048;-52
2021/12/20 08:21:30;;;;;;;13.05;1.85;;;;;;;4.65;96.90;102788.00;5048133;28;20036;-53
2021/12/20 08:23:58;;;;;;;10.65;1.65;;;;;;;4.63;97.87;102792.38;5054648;28;20044;-52
2021/12/20 08:26:27;;;;;;;14.40;2.47;;;;;;;4.60;97.50;102788.03;5054465;28;20052;-53
2021/12/20 08:28:58;;;;;;;14.70;1.90;;;;;;;4.61;97.67;102791.50;5054671;28;20052;-54
2021/12/20 08:31:26;;;;;;;9.40;2.35;;;;;;;4.62;98.58;102794.13;5054503;28;20057;-53
2021/12/20 08:33:55;;;;;;;14.98;2.75;;;;;;;4.62;99.23;102801.06;5054135;28;20061;-52
2021/12/20 08:36:24;;;;;;;13.52;2.58;;;;;;;4.61;98.21;102807.13;5054431;28;20149;-55
2021/12/20 08:38:52;;;;;;;10.63;2.20;;;;;;;4.61;97.94;102797.59;5052026;28;20167;-54
2021/12/20 08:41:20;;;;;;;13.35;2.35;;;;;;;4.71;97.24;102803.59;5052550;28;20059;-54
2021/12/20 08:43:48;;;;;;;16.08;2.35;;;;;;;4.71;96.88;102798.38;5053882;28;20033;-54
2021/12/20 08:46:18;;;;;;;17.92;2.22;;;;;;;4.75;97.51;102810.50;5053128;28;20044;-55
2021/12/20 08:48:48;;;;;;;11.80;2.33;;;;;;;4.74;97.89;102817.47;5053357;28;20068;-55
2021/12/20 08:51:17;;;;;;;11.45;1.55;;;;;;;4.73;95.93;102815.72;5052273;28;20451;-54
2021/12/20 08:53:45;;;;;;;7.20;1.33;;;;;;;4.73;96.50;102814.84;5050479;28;20129;-51
2021/12/20 08:56:15;;;;;;;9.02;1.83;;;;;;;4.79;95.90;102811.34;5052149;28;20133;-53
2021/12/20 08:58:43;;;;;;;10.55;1.73;;;;;;;4.81;95.59;102818.25;5052456;28;20511;-54
2021/12/20 09:01:12;;;;;;;12.38;1.98;;;;;;;4.81;94.76;102820.84;5053840;28;20060;-54
2021/12/20 09:03:40;;;;;;;9.85;1.52;;;;;;;4.86;94.97;102819.06;5051558;28;20041;-54
2021/12/20 09:06:09;;;;;;;11.50;1.25;;;;;;;4.87;95.99;102820.81;5033853;28;20041;-55
2021/12/20 09:08:40;;;;;;;12.82;1.92;;;;;;;4.94;95.23;102816.41;5034488;28;20051;-53
2021/12/20 09:11:08;;;;;;;7.60;1.60;;;;;;;5.02;95.89;102816.34;5048633;28;20412;-53
2021/12/20 09:13:37;;;;;;;18.50;1.73;;;;;;;5.07;94.99;102822.34;5040084;28;20052;-53
2021/12/20 09:16:05;;;;;;;15.15;2.08;;;;;;;5.00;93.62;102826.75;5032826;28;20053;-50
2021/12/20 09:18:33;;;;;;;9.38;1.55;;;;;;;5.09;93.97;102831.03;5033776;28;20057;-53
2021/12/20 09:21:02;;;;;;;10.38;1.50;;;;;;;5.20;95.99;102828.31;5049875;28;20048;-53
2021/12/20 09:23:32;;;;;;;13.70;1.85;;;;;;;5.29;93.17;102827.31;5041660;28;20128;-52
2021/12/20 09:26:01;;;;;;;12.88;1.75;;;;;;;5.46;92.73;102822.78;5050263;28;20118;-53
2021/12/20 09:28:30;;;;;;;10.18;1.92;;;;;;;5.74;93.82;102823.31;5053629;28;20523;-54
2021/12/20 09:30:58;;;;;;;13.55;2.70;;;;;;;5.87;92.19;102826.59;5050178;28;20064;-55
2021/12/20 09:33:27;;;;;;;9.20;1.90;;;;;;;5.88;90.98;102823.13;5048540;28;20063;-55
2021/12/20 09:35:55;;;;;;;12.65;1.90;;;;;;;5.89;89.56;102831.78;5036787;28;20056;-52
2021/12/20 09:38:24;;;;;;;12.20;2.47;;;;;;;5.80;89.42;102829.34;5033307;28;20052;-54
2021/12/20 09:43:44;;;;;;;11.52;2.13;;;;;;;5.79;92.48;102828.44;5052406;28;20131;-52
2021/12/20 09:46:15;;;;;;;11.60;1.70;;;;;;;5.75;91.61;102842.44;5051447;28;20045;-53
2021/12/20 09:48:45;;;;;;;14.02;2.00;;;;;;;5.89;90.27;102840.50;5035265;28;20053;-54
2021/12/20 09:51:15;;;;;;;12.63;2.58;;;;;;;5.81;90.07;102836.25;5030785;28;20136;-54
2021/12/20 09:53:43;;;;;;;16.13;2.55;;;;;;;5.75;90.03;102840.69;5033772;28;20029;-50
2021/12/20 09:56:12;;;;;;;14.68;2.15;;;;;;;5.74;90.97;102840.72;5030544;28;20050;-51
2021/12/20 09:58:42;;;;;;;16.35;2.65;;;;;;;5.68;92.48;102840.78;5030602;28;20331;-49
2021/12/20 10:01:13;;;;;;;11.52;2.13;;;;;;;5.80;92.47;102845.00;5033011;28;20056;-49
2021/12/20 10:03:46;;;;;;;19.13;3.10;;;;;;;5.61;91.97;102837.41;5039665;28;20037;-52
2021/12/20 10:06:15;;;;;;;19.92;2.90;;;;;;;5.49;93.07;102840.16;5042263;28;20477;-54
2021/12/20 10:08:50;;;;;;;19.67;2.50;;;;;;;5.53;93.89;102831.41;5034166;28;20060;-52
2021/12/20 10:11:20;;;;;;;12.23;2.70;;;;;;;5.52;93.98;102837.50;5032874;28;20039;-52
2021/12/20 10:13:51;;;;;;;17.30;2.85;;;;;;;5.57;93.20;102843.53;5035676;28;20049;-53
2021/12/20 10:16:24;;;;;;;22.88;3.50;;;;;;;5.60;92.62;102840.88;5032846;28;20092;-53
2021/12/20 10:18:52;;;;;;;10.25;2.30;;;;;;;5.69;92.40;102843.38;5029268;28;20052;-54
2021/12/20 10:21:20;;;;;;;16.92;3.97;;;;;;;5.63;93.10;102847.81;5035450;28;20032;-53
2021/12/20 10:23:50;;;;;;;20.02;3.80;;;;;;;5.58;93.75;102856.56;5050575;28;20045;-52
2021/12/20 10:26:20;;;;;;;24.15;5.07;;;;;;;5.67;94.23;102850.38;5047249;28;20049;-50
2021/12/20 10:28:52;;;;;;;21.80;4.90;;;;;;;5.64;94.68;102854.78;5044561;28;20124;-52
2021/12/20 10:31:22;;;;;;;21.63;4.57;;;;;;;5.57;94.01;102848.75;5051884;28;20049;-48
2021/12/20 10:33:56;;;;;;;20.27;4.20;;;;;;;5.68;95.10;102846.00;5052039;28;20041;-49
2021/12/20 10:36:25;;;;;;;21.02;4.75;;;;;;;5.77;95.23;102845.91;5049553;28;20041;-53
2021/12/20 10:38:57;;;;;;;29.83;4.50;;;;;;;5.70;94.39;102844.22;5049232;28;20056;-53
2021/12/20 10:41:33;;;;;;;21.05;5.07;;;;;;;5.74;94.03;102843.34;5039724;28;20132;-49
2021/12/20 10:44:14;;;;;;;26.10;4.90;;;;;;;5.75;94.49;102845.03;5031871;28;20405;-51
2021/12/20 10:46:47;;;;;;;27.92;5.65;;;;;;;5.74;93.80;102843.34;5031597;28;20400;-51
2021/12/20 10:49:15;;;;;;;30.00;6.10;;;;;;;5.69;93.41;102848.59;5031463;28;20056;-54
2021/12/20 10:51:46;;;;;;;21.52;4.93;;;;;;;5.68;93.90;102846.88;5030706;28;20061;-53
2021/12/20 10:54:18;;;;;;;24.35;5.22;;;;;;;5.51;95.31;102844.47;5042465;28;20045;-52
2021/12/20 10:56:51;;;;;;;28.90;4.85;;;;;;;5.61;94.42;102840.00;5051967;28;20045;-54
2021/12/20 10:59:24;;;;;;;24.67;4.95;;;;;;;5.62;95.21;102840.84;5042172;28;20676;-54
2021/12/20 11:04:45;;;;;;;25.52;5.15;;;;;;;5.72;93.37;102834.66;5021720;28;20049;-54
2021/12/20 11:10:09;;;;;;;33.10;6.47;;;;;;;5.59;94.11;102833.97;5022185;28;20096;-54
2021/12/20 11:12:37;;;;;;;30.27;5.60;;;;;;;5.60;93.80;102827.81;5040724;28;20507;-52
2021/12/20 11:15:09;;;;;;;29.80;6.65;;;;;;;5.57;93.94;102830.47;5071612;28;20041;-53
2021/12/20 11:17:42;;;;;;;29.67;5.18;;;;;;;5.55;94.63;102838.34;5063445;28;20048;-52
2021/12/20 11:20:11;;;;;;;24.55;3.85;;;;;;;5.58;94.04;102832.22;5056050;28;20076;-54
2021/12/20 11:22:39;;;;;;;25.67;5.35;;;;;;;5.55;93.20;102829.66;5056063;28;20087;-53
2021/12/20 11:25:11;;;;;;;24.83;5.38;;;;;;;5.58;93.45;102829.59;5049269;28;20045;-52
2021/12/20 11:27:42;;;;;;;31.33;5.45;;;;;;;5.55;93.18;102827.91;5062888;28;20094;-53
2021/12/20 11:30:15;;;;;;;23.55;4.20;;;;;;;5.57;93.06;102825.25;5075886;28;20119;-54
2021/12/20 11:32:44;;;;;;;27.33;3.95;;;;;;;5.53;93.03;102813.13;5075904;28;20582;-53
2021/12/20 11:35:14;;;;;;;24.50;4.15;;;;;;;5.52;93.42;102817.50;5075756;28;20059;-52
2021/12/20 11:37:42;;;;;;;22.33;4.60;;;;;;;5.52;94.06;102827.94;5075598;28;20045;-51
2021/12/20 11:40:14;;;;;;;26.92;4.28;;;;;;;5.47;93.74;102828.84;5075705;28;20578;-50
2021/12/20 11:42:42;;;;;;;20.88;4.13;;;;;;;5.62;91.37;102819.97;5075087;28;20049;-53
2021/12/20 11:45:16;;;;;;;23.98;4.07;;;;;;;5.59;91.38;102816.53;5072722;28;20028;-54
2021/12/20 11:47:49;;;;;;;22.13;3.97;;;;;;;5.55;92.23;102827.03;5073889;28;20142;-51
2021/12/20 11:50:19;;;;;;;22.67;4.38;;;;;;;5.52;93.76;102829.66;5075407;28;20041;-50
2021/12/20 11:52:49;;;;;;;18.75;3.45;;;;;;;5.40;92.62;102823.72;5073997;28;20440;-52